Terminal Aerodrome Forecast
Issued by NWS Paducah, KY

Home | Current Version | Previous Version | Text Only | Print | Product List | Glossary On
Versions: 1 2 3 4 5 6 7 8 9 10 11 12 13 14 15 16
998
FTUS43 KPAH 242320
TAFEVV
TAF
KEVV 242320Z 2500/2524 00000KT P6SM SKC
     FM250800 00000KT 4SM BR SCT250
     FM251400 22005KT P6SM SCT040 BKN250
     FM252000 22005KT P6SM VCTS BKN045CB=

USA.gov is the U.S. government's official web portal to all federal, state and local government web resources and services.